sensor_id;sensor_type;location;lat;lon;timestamp;temperature;humidity
15241;DHT22;7723;52.170;9.978;2024-02-21T00:01:59;8.10;99.90
15241;DHT22;7723;52.170;9.978;2024-02-21T00:04:26;8.20;99.90
15241;DHT22;7723;52.170;9.978;2024-02-21T00:06:53;8.20;99.90
15241;DHT22;7723;52.170;9.978;2024-02-21T00:09:20;8.20;99.90
15241;DHT22;7723;52.170;9.978;2024-02-21T00:11:48;8.20;99.90
15241;DHT22;7723;52.170;9.978;2024-02-21T00:14:15;8.20;99.90
15241;DHT22;7723;52.170;9.978;2024-02-21T00:16:42;8.20;99.90
15241;DHT22;7723;52.170;9.978;2024-02-21T00:19:09;8.20;99.90
15241;DHT22;7723;52.170;9.978;2024-02-21T00:21:36;8.20;99.90
15241;DHT22;7723;52.170;9.978;2024-02-21T00:24:04;8.20;99.90
15241;DHT22;7723;52.170;9.978;2024-02-21T00:26:32;8.20;99.90
15241;DHT22;7723;52.170;9.978;2024-02-21T00:29:00;8.20;99.90
15241;DHT22;7723;52.170;9.978;2024-02-21T00:31:27;8.20;99.90
15241;DHT22;7723;52.170;9.978;2024-02-21T00:33:54;8.20;99.90
15241;DHT22;7723;52.170;9.978;2024-02-21T00:36:21;8.20;99.90
15241;DHT22;7723;52.170;9.978;2024-02-21T00:38:48;8.20;99.90
15241;DHT22;7723;52.170;9.978;2024-02-21T00:41:15;8.20;99.90
15241;DHT22;7723;52.170;9.978;2024-02-21T00:43:43;8.20;99.90
15241;DHT22;7723;52.170;9.978;2024-02-21T00:46:11;8.20;99.90
15241;DHT22;7723;52.170;9.978;2024-02-21T00:48:38;8.20;99.90
15241;DHT22;7723;52.170;9.978;2024-02-21T00:51:05;8.20;99.90
15241;DHT22;7723;52.170;9.978;2024-02-21T00:53:32;8.20;99.90
15241;DHT22;7723;52.170;9.978;2024-02-21T00:55:59;8.30;99.90
15241;DHT22;7723;52.170;9.978;2024-02-21T00:58:27;8.20;99.90
15241;DHT22;7723;52.170;9.978;2024-02-21T01:00:54;8.20;99.90
15241;DHT22;7723;52.170;9.978;2024-02-21T01:03:22;8.30;99.90
15241;DHT22;7723;52.170;9.978;2024-02-21T01:05:49;8.30;99.90
15241;DHT22;7723;52.170;9.978;2024-02-21T01:08:16;8.30;99.90
15241;DHT22;7723;52.170;9.978;2024-02-21T01:10:43;8.30;99.90
15241;DHT22;7723;52.170;9.978;2024-02-21T01:13:10;8.30;99.90
15241;DHT22;7723;52.170;9.978;2024-02-21T01:15:37;8.30;99.90
15241;DHT22;7723;52.170;9.978;2024-02-21T01:18:04;8.30;99.90
15241;DHT22;7723;52.170;9.978;2024-02-21T01:20:33;8.20;99.90
15241;DHT22;7723;52.170;9.978;2024-02-21T01:23:00;8.20;99.90
15241;DHT22;7723;52.170;9.978;2024-02-21T01:25:28;8.30;99.90
15241;DHT22;7723;52.170;9.978;2024-02-21T01:27:55;8.20;99.90
15241;DHT22;7723;52.170;9.978;2024-02-21T01:30:22;8.20;99.90
15241;DHT22;7723;52.170;9.978;2024-02-21T01:32:49;8.20;99.90
15241;DHT22;7723;52.170;9.978;2024-02-21T01:35:16;8.30;99.90
15241;DHT22;7723;52.170;9.978;2024-02-21T01:37:47;8.30;99.90
15241;DHT22;7723;52.170;9.978;2024-02-21T01:40:15;8.30;99.90
15241;DHT22;7723;52.170;9.978;2024-02-21T01:42:42;8.30;99.90
15241;DHT22;7723;52.170;9.978;2024-02-21T01:45:09;8.30;99.90
15241;DHT22;7723;52.170;9.978;2024-02-21T01:47:37;8.30;99.90
15241;DHT22;7723;52.170;9.978;2024-02-21T01:50:05;8.30;99.90
15241;DHT22;7723;52.170;9.978;2024-02-21T01:52:33;8.30;99.90
15241;DHT22;7723;52.170;9.978;2024-02-21T01:55:03;8.30;99.90
15241;DHT22;7723;52.170;9.978;2024-02-21T01:57:31;8.30;99.90
15241;DHT22;7723;52.170;9.978;2024-02-21T01:59:58;8.30;99.90
15241;DHT22;7723;52.170;9.978;2024-02-21T02:02:26;8.30;99.90
15241;DHT22;7723;52.170;9.978;2024-02-21T02:04:53;8.30;99.90
15241;DHT22;7723;52.170;9.978;2024-02-21T02:07:21;8.30;99.90
15241;DHT22;7723;52.170;9.978;2024-02-21T02:09:48;8.30;99.90
15241;DHT22;7723;52.170;9.978;2024-02-21T02:12:17;8.30;99.90
15241;DHT22;7723;52.170;9.978;2024-02-21T02:14:44;8.40;99.90
15241;DHT22;7723;52.170;9.978;2024-02-21T02:17:11;8.40;99.90
15241;DHT22;7723;52.170;9.978;2024-02-21T02:19:38;8.40;99.90
15241;DHT22;7723;52.170;9.978;2024-02-21T02:22:11;8.30;99.90
15241;DHT22;7723;52.170;9.978;2024-02-21T02:24:42;8.30;99.90
15241;DHT22;7723;52.170;9.978;2024-02-21T02:27:10;8.30;99.90
15241;DHT22;7723;52.170;9.978;2024-02-21T02:29:38;8.40;99.90
15241;DHT22;7723;52.170;9.978;2024-02-21T02:32:06;8.40;99.90
15241;DHT22;7723;52.170;9.978;2024-02-21T02:34:33;8.30;99.90
15241;DHT22;7723;52.170;9.978;2024-02-21T02:36:59;8.40;99.90
15241;DHT22;7723;52.170;9.978;2024-02-21T02:39:26;8.40;99.90
15241;DHT22;7723;52.170;9.978;2024-02-21T02:41:54;8.40;99.90
15241;DHT22;7723;52.170;9.978;2024-02-21T02:44:21;8.40;99.90
15241;DHT22;7723;52.170;9.978;2024-02-21T02:46:49;8.40;99.90
15241;DHT22;7723;52.170;9.978;2024-02-21T02:49:16;8.40;99.90
15241;DHT22;7723;52.170;9.978;2024-02-21T02:51:44;8.50;99.90
15241;DHT22;7723;52.170;9.978;2024-02-21T02:54:11;8.40;99.90
15241;DHT22;7723;52.170;9.978;2024-02-21T02:56:38;8.40;99.90
15241;DHT22;7723;52.170;9.978;2024-02-21T02:59:07;8.40;99.90
15241;DHT22;7723;52.170;9.978;2024-02-21T03:01:34;8.40;99.90
15241;DHT22;7723;52.170;9.978;2024-02-21T03:04:02;8.40;99.90
15241;DHT22;7723;52.170;9.978;2024-02-21T03:06:29;8.50;99.90
15241;DHT22;7723;52.170;9.978;2024-02-21T03:08:56;8.40;99.90
15241;DHT22;7723;52.170;9.978;2024-02-21T03:11:23;8.40;99.90
15241;DHT22;7723;52.170;9.978;2024-02-21T03:13:54;8.40;99.90
15241;DHT22;7723;52.170;9.978;2024-02-21T03:16:23;8.40;99.90
15241;DHT22;7723;52.170;9.978;2024-02-21T03:18:51;8.40;99.90
15241;DHT22;7723;52.170;9.978;2024-02-21T03:21:18;8.50;99.90
15241;DHT22;7723;52.170;9.978;2024-02-21T03:23:45;8.50;99.90
15241;DHT22;7723;52.170;9.978;2024-02-21T03:26:12;8.50;99.90
15241;DHT22;7723;52.170;9.978;2024-02-21T03:28:42;8.50;99.90
15241;DHT22;7723;52.170;9.978;2024-02-21T03:31:11;8.50;99.90
15241;DHT22;7723;52.170;9.978;2024-02-21T03:33:42;8.50;99.90
15241;DHT22;7723;52.170;9.978;2024-02-21T03:36:13;8.50;99.90
15241;DHT22;7723;52.170;9.978;2024-02-21T03:38:41;8.50;99.90
15241;DHT22;7723;52.170;9.978;2024-02-21T03:41:08;8.50;99.90
15241;DHT22;7723;52.170;9.978;2024-02-21T03:43:37;8.40;99.90
15241;DHT22;7723;52.170;9.978;2024-02-21T03:46:07;8.40;99.90
15241;DHT22;7723;52.170;9.978;2024-02-21T03:48:36;8.40;99.90
15241;DHT22;7723;52.170;9.978;2024-02-21T03:51:04;8.40;99.90
15241;DHT22;7723;52.170;9.978;2024-02-21T03:53:32;8.40;99.90
15241;DHT22;7723;52.170;9.978;2024-02-21T03:56:01;8.40;99.90
15241;DHT22;7723;52.170;9.978;2024-02-21T03:58:30;8.40;99.90
15241;DHT22;7723;52.170;9.978;2024-02-21T04:00:57;8.30;99.90
15241;DHT22;7723;52.170;9.978;2024-02-21T04:03:24;8.40;99.90
15241;DHT22;7723;52.170;9.978;2024-02-21T04:05:51;8.30;99.90
15241;DHT22;7723;52.170;9.978;2024-02-21T04:08:19;8.30;99.90
15241;DHT22;7723;52.170;9.978;2024-02-21T04:10:47;8.30;99.90
15241;DHT22;7723;52.170;9.978;2024-02-21T04:13:14;8.30;99.90
15241;DHT22;7723;52.170;9.978;2024-02-21T04:15:41;8.20;99.90
15241;DHT22;7723;52.170;9.978;2024-02-21T04:18:08;8.30;99.90
15241;DHT22;7723;52.170;9.978;2024-02-21T04:20:35;8.20;99.90
15241;DHT22;7723;52.170;9.978;2024-02-21T04:23:03;8.30;99.90
15241;DHT22;7723;52.170;9.978;2024-02-21T04:25:31;8.30;99.90
15241;DHT22;7723;52.170;9.978;2024-02-21T04:27:58;8.30;99.90
15241;DHT22;7723;52.170;9.978;2024-02-21T04:30:26;8.30;99.90
15241;DHT22;7723;52.170;9.978;2024-02-21T04:32:53;8.20;99.90
15241;DHT22;7723;52.170;9.978;2024-02-21T04:35:20;8.20;99.90
15241;DHT22;7723;52.170;9.978;2024-02-21T04:37:47;8.30;99.90
15241;DHT22;7723;52.170;9.978;2024-02-21T04:40:14;8.30;99.90
15241;DHT22;7723;52.170;9.978;2024-02-21T04:42:43;8.40;99.90
15241;DHT22;7723;52.170;9.978;2024-02-21T04:45:11;8.40;99.90
15241;DHT22;7723;52.170;9.978;2024-02-21T04:47:38;8.40;99.90
15241;DHT22;7723;52.170;9.978;2024-02-21T04:50:05;8.40;99.90
15241;DHT22;7723;52.170;9.978;2024-02-21T04:52:32;8.50;99.90
15241;DHT22;7723;52.170;9.978;2024-02-21T04:54:59;8.50;99.90
15241;DHT22;7723;52.170;9.978;2024-02-21T04:57:27;8.50;99.90
15241;DHT22;7723;52.170;9.978;2024-02-21T04:59:55;8.50;99.90
15241;DHT22;7723;52.170;9.978;2024-02-21T05:02:22;8.50;99.90
15241;DHT22;7723;52.170;9.978;2024-02-21T05:04:50;8.50;99.90
15241;DHT22;7723;52.170;9.978;2024-02-21T05:07:17;8.50;99.90
15241;DHT22;7723;52.170;9.978;2024-02-21T05:09:45;8.50;99.90
15241;DHT22;7723;52.170;9.978;2024-02-21T05:12:12;8.50;99.90
15241;DHT22;7723;52.170;9.978;2024-02-21T05:14:39;8.50;99.90
15241;DHT22;7723;52.170;9.978;2024-02-21T05:17:07;8.50;99.90
15241;DHT22;7723;52.170;9.978;2024-02-21T05:19:35;8.50;99.90
15241;DHT22;7723;52.170;9.978;2024-02-21T05:22:02;8.50;99.90
15241;DHT22;7723;52.170;9.978;2024-02-21T05:24:29;8.50;99.90
15241;DHT22;7723;52.170;9.978;2024-02-21T05:26:56;8.50;99.90
15241;DHT22;7723;52.170;9.978;2024-02-21T05:29:23;8.50;99.90
15241;DHT22;7723;52.170;9.978;2024-02-21T05:31:57;8.50;99.90
15241;DHT22;7723;52.170;9.978;2024-02-21T05:34:26;8.60;99.90
15241;DHT22;7723;52.170;9.978;2024-02-21T05:36:53;8.60;99.90
15241;DHT22;7723;52.170;9.978;2024-02-21T05:39:20;8.70;99.90
15241;DHT22;7723;52.170;9.978;2024-02-21T05:41:49;8.70;99.90
15241;DHT22;7723;52.170;9.978;2024-02-21T05:44:16;8.70;99.90
15241;DHT22;7723;52.170;9.978;2024-02-21T05:46:43;8.70;99.90
15241;DHT22;7723;52.170;9.978;2024-02-21T05:49:11;8.60;99.90
15241;DHT22;7723;52.170;9.978;2024-02-21T05:51:39;8.60;99.90
15241;DHT22;7723;52.170;9.978;2024-02-21T05:54:06;8.60;99.90
15241;DHT22;7723;52.170;9.978;2024-02-21T05:56:34;8.50;99.90
15241;DHT22;7723;52.170;9.978;2024-02-21T05:59:01;8.50;99.90
15241;DHT22;7723;52.170;9.978;2024-02-21T06:01:28;8.50;99.90
15241;DHT22;7723;52.170;9.978;2024-02-21T06:03:55;8.50;99.90
15241;DHT22;7723;52.170;9.978;2024-02-21T06:06:22;8.50;99.90
15241;DHT22;7723;52.170;9.978;2024-02-21T06:08:51;8.50;99.90
15241;DHT22;7723;52.170;9.978;2024-02-21T06:11:18;8.50;99.90
15241;DHT22;7723;52.170;9.978;2024-02-21T06:13:45;8.50;99.90
15241;DHT22;7723;52.170;9.978;2024-02-21T06:16:12;8.50;99.90
15241;DHT22;7723;52.170;9.978;2024-02-21T06:18:39;8.50;99.90
15241;DHT22;7723;52.170;9.978;2024-02-21T06:21:06;8.40;99.90
15241;DHT22;7723;52.170;9.978;2024-02-21T06:23:33;8.40;99.90
15241;DHT22;7723;52.170;9.978;2024-02-21T06:26:02;8.40;99.90
15241;DHT22;7723;52.170;9.978;2024-02-21T06:28:29;8.40;99.90
15241;DHT22;7723;52.170;9.978;2024-02-21T06:30:56;8.40;99.90
15241;DHT22;7723;52.170;9.978;2024-02-21T06:33:23;8.40;99.90
15241;DHT22;7723;52.170;9.978;2024-02-21T06:35:50;8.40;99.90
15241;DHT22;7723;52.170;9.978;2024-02-21T06:38:19;8.40;99.90
15241;DHT22;7723;52.170;9.978;2024-02-21T06:40:46;8.30;99.90
15241;DHT22;7723;52.170;9.978;2024-02-21T06:43:20;8.30;99.90
15241;DHT22;7723;52.170;9.978;2024-02-21T06:45:48;8.30;99.90
15241;DHT22;7723;52.170;9.978;2024-02-21T06:48:17;8.30;99.90
15241;DHT22;7723;52.170;9.978;2024-02-21T06:50:45;8.30;99.90
15241;DHT22;7723;52.170;9.978;2024-02-21T06:53:12;8.30;99.90
15241;DHT22;7723;52.170;9.978;2024-02-21T06:55:39;8.40;99.90
15241;DHT22;7723;52.170;9.978;2024-02-21T06:58:06;8.40;99.90
15241;DHT22;7723;52.170;9.978;2024-02-21T07:00:38;8.30;99.90
15241;DHT22;7723;52.170;9.978;2024-02-21T07:03:06;8.40;99.90
15241;DHT22;7723;52.170;9.978;2024-02-21T07:05:33;8.30;99.90
15241;DHT22;7723;52.170;9.978;2024-02-21T07:08:00;8.30;99.90
15241;DHT22;7723;52.170;9.978;2024-02-21T07:10:27;8.30;99.90
15241;DHT22;7723;52.170;9.978;2024-02-21T07:12:54;8.30;99.90
15241;DHT22;7723;52.170;9.978;2024-02-21T07:15:21;8.30;99.90
15241;DHT22;7723;52.170;9.978;2024-02-21T07:17:53;8.40;99.90
15241;DHT22;7723;52.170;9.978;2024-02-21T07:20:20;8.40;99.90
15241;DHT22;7723;52.170;9.978;2024-02-21T07:22:47;8.50;99.90
15241;DHT22;7723;52.170;9.978;2024-02-21T07:25:15;8.50;99.90
15241;DHT22;7723;52.170;9.978;2024-02-21T07:27:43;8.50;99.90
15241;DHT22;7723;52.170;9.978;2024-02-21T07:30:11;8.50;99.90
15241;DHT22;7723;52.170;9.978;2024-02-21T07:32:38;8.50;99.90
15241;DHT22;7723;52.170;9.978;2024-02-21T07:35:07;8.50;99.90
15241;DHT22;7723;52.170;9.978;2024-02-21T07:37:36;8.50;99.90
15241;DHT22;7723;52.170;9.978;2024-02-21T07:40:05;8.50;99.90
15241;DHT22;7723;52.170;9.978;2024-02-21T07:42:33;8.50;99.90
15241;DHT22;7723;52.170;9.978;2024-02-21T07:45:00;8.50;99.90
15241;DHT22;7723;52.170;9.978;2024-02-21T07:47:29;8.50;99.90
15241;DHT22;7723;52.170;9.978;2024-02-21T07:49:56;8.60;99.90
15241;DHT22;7723;52.170;9.978;2024-02-21T07:52:24;8.60;99.90
15241;DHT22;7723;52.170;9.978;2024-02-21T07:54:51;8.60;99.90
15241;DHT22;7723;52.170;9.978;2024-02-21T07:57:18;8.60;99.90
15241;DHT22;7723;52.170;9.978;2024-02-21T07:59:46;8.70;99.90
15241;DHT22;7723;52.170;9.978;2024-02-21T08:02:13;8.70;99.90
15241;DHT22;7723;52.170;9.978;2024-02-21T08:04:41;8.70;99.90
15241;DHT22;7723;52.170;9.978;2024-02-21T08:07:08;8.70;99.90
15241;DHT22;7723;52.170;9.978;2024-02-21T08:09:36;8.70;99.90
15241;DHT22;7723;52.170;9.978;2024-02-21T08:12:06;8.70;99.90
15241;DHT22;7723;52.170;9.978;2024-02-21T08:14:33;8.80;99.90
15241;DHT22;7723;52.170;9.978;2024-02-21T08:17:00;8.70;99.90
15241;DHT22;7723;52.170;9.978;2024-02-21T08:19:29;8.80;99.90
15241;DHT22;7723;52.170;9.978;2024-02-21T08:21:56;8.90;99.90
15241;DHT22;7723;52.170;9.978;2024-02-21T08:24:23;8.90;99.90
15241;DHT22;7723;52.170;9.978;2024-02-21T08:26:52;8.90;99.90
15241;DHT22;7723;52.170;9.978;2024-02-21T08:29:19;9.00;99.90
15241;DHT22;7723;52.170;9.978;2024-02-21T08:31:46;8.90;99.90
15241;DHT22;7723;52.170;9.978;2024-02-21T08:34:13;9.00;99.90
15241;DHT22;7723;52.170;9.978;2024-02-21T08:36:40;9.00;99.90
15241;DHT22;7723;52.170;9.978;2024-02-21T08:39:06;9.10;99.90
15241;DHT22;7723;52.170;9.978;2024-02-21T08:41:35;9.10;99.90
15241;DHT22;7723;52.170;9.978;2024-02-21T08:44:04;9.20;88.40
15241;DHT22;7723;52.170;9.978;2024-02-21T08:46:31;9.30;30.40
15241;DHT22;7723;52.170;9.978;2024-02-21T08:48:58;9.40;1.00
15241;DHT22;7723;52.170;9.978;2024-02-21T08:51:25;9.50;1.00
15241;DHT22;7723;52.170;9.978;2024-02-21T08:53:52;9.50;1.00
15241;DHT22;7723;52.170;9.978;2024-02-21T08:56:19;9.60;99.90
15241;DHT22;7723;52.170;9.978;2024-02-21T08:58:46;9.60;1.00
15241;DHT22;7723;52.170;9.978;2024-02-21T09:01:15;9.70;1.00
15241;DHT22;7723;52.170;9.978;2024-02-21T09:03:42;9.70;1.00
15241;DHT22;7723;52.170;9.978;2024-02-21T09:06:10;9.80;99.90
15241;DHT22;7723;52.170;9.978;2024-02-21T09:08:38;9.80;99.90
15241;DHT22;7723;52.170;9.978;2024-02-21T09:11:06;9.80;99.90
15241;DHT22;7723;52.170;9.978;2024-02-21T09:13:33;9.80;1.00
15241;DHT22;7723;52.170;9.978;2024-02-21T09:16:01;9.70;1.00
15241;DHT22;7723;52.170;9.978;2024-02-21T09:18:29;9.70;1.00
15241;DHT22;7723;52.170;9.978;2024-02-21T09:20:56;9.80;1.00
15241;DHT22;7723;52.170;9.978;2024-02-21T09:23:24;9.80;95.30
15241;DHT22;7723;52.170;9.978;2024-02-21T09:25:51;9.90;99.90
15241;DHT22;7723;52.170;9.978;2024-02-21T09:28:18;9.80;1.00
15241;DHT22;7723;52.170;9.978;2024-02-21T09:30:46;9.90;99.90
15241;DHT22;7723;52.170;9.978;2024-02-21T09:33:13;10.00;1.00
15241;DHT22;7723;52.170;9.978;2024-02-21T09:35:42;10.00;66.30
15241;DHT22;7723;52.170;9.978;2024-02-21T09:38:09;9.90;1.00
15241;DHT22;7723;52.170;9.978;2024-02-21T09:40:36;9.90;1.00
15241;DHT22;7723;52.170;9.978;2024-02-21T09:43:05;9.80;99.90
15241;DHT22;7723;52.170;9.978;2024-02-21T09:45:33;9.80;1.00
15241;DHT22;7723;52.170;9.978;2024-02-21T09:48:15;9.80;1.00
15241;DHT22;7723;52.170;9.978;2024-02-21T09:50:49;9.90;1.00
15241;DHT22;7723;52.170;9.978;2024-02-21T09:53:18;10.00;1.00
15241;DHT22;7723;52.170;9.978;2024-02-21T09:55:46;10.10;1.00
15241;DHT22;7723;52.170;9.978;2024-02-21T09:58:15;10.20;1.00
15241;DHT22;7723;52.170;9.978;2024-02-21T10:00:42;10.30;1.00
15241;DHT22;7723;52.170;9.978;2024-02-21T10:03:10;10.40;1.00
15241;DHT22;7723;52.170;9.978;2024-02-21T10:05:37;10.40;99.90
15241;DHT22;7723;52.170;9.978;2024-02-21T10:08:06;10.50;99.90
15241;DHT22;7723;52.170;9.978;2024-02-21T10:10:42;10.60;99.90
15241;DHT22;7723;52.170;9.978;2024-02-21T10:13:10;10.80;14.20
15241;DHT22;7723;52.170;9.978;2024-02-21T10:15:37;11.00;1.00
15241;DHT22;7723;52.170;9.978;2024-02-21T10:18:05;11.00;99.90
15241;DHT22;7723;52.170;9.978;2024-02-21T10:20:32;11.00;99.90
15241;DHT22;7723;52.170;9.978;2024-02-21T10:23:03;11.10;99.90
15241;DHT22;7723;52.170;9.978;2024-02-21T10:25:35;11.00;15.30
15241;DHT22;7723;52.170;9.978;2024-02-21T10:28:04;11.00;99.90
15241;DHT22;7723;52.170;9.978;2024-02-21T10:30:31;11.10;1.00
15241;DHT22;7723;52.170;9.978;2024-02-21T10:32:58;11.00;1.00
15241;DHT22;7723;52.170;9.978;2024-02-21T10:35:26;11.10;1.00
15241;DHT22;7723;52.170;9.978;2024-02-21T10:37:55;11.10;1.00
15241;DHT22;7723;52.170;9.978;2024-02-21T10:40:23;11.10;1.00
15241;DHT22;7723;52.170;9.978;2024-02-21T10:42:57;11.10;1.00
15241;DHT22;7723;52.170;9.978;2024-02-21T10:45:30;11.00;1.00
15241;DHT22;7723;52.170;9.978;2024-02-21T10:48:08;11.00;1.00
15241;DHT22;7723;52.170;9.978;2024-02-21T10:50:48;11.00;1.00
15241;DHT22;7723;52.170;9.978;2024-02-21T10:53:28;11.20;1.00
15241;DHT22;7723;52.170;9.978;2024-02-21T10:56:01;11.20;1.00
15241;DHT22;7723;52.170;9.978;2024-02-21T10:58:35;11.30;1.00
15241;DHT22;7723;52.170;9.978;2024-02-21T11:01:03;11.20;1.00
15241;DHT22;7723;52.170;9.978;2024-02-21T11:03:32;11.20;99.90
15241;DHT22;7723;52.170;9.978;2024-02-21T11:05:59;11.30;99.90
15241;DHT22;7723;52.170;9.978;2024-02-21T11:08:27;11.20;99.90
15241;DHT22;7723;52.170;9.978;2024-02-21T11:10:56;11.10;99.90
15241;DHT22;7723;52.170;9.978;2024-02-21T11:13:30;11.00;99.90
15241;DHT22;7723;52.170;9.978;2024-02-21T11:16:08;11.00;99.90
15241;DHT22;7723;52.170;9.978;2024-02-21T11:18:36;11.00;99.90
15241;DHT22;7723;52.170;9.978;2024-02-21T11:21:04;11.00;99.90
15241;DHT22;7723;52.170;9.978;2024-02-21T11:23:32;11.10;99.90
15241;DHT22;7723;52.170;9.978;2024-02-21T11:26:06;11.10;99.90
15241;DHT22;7723;52.170;9.978;2024-02-21T11:28:33;11.20;99.90
15241;DHT22;7723;52.170;9.978;2024-02-21T11:31:08;11.20;3.80
15241;DHT22;7723;52.170;9.978;2024-02-21T11:33:40;11.20;42.10
15241;DHT22;7723;52.170;9.978;2024-02-21T11:36:08;11.10;8.80
15241;DHT22;7723;52.170;9.978;2024-02-21T11:38:35;11.00;1.00
15241;DHT22;7723;52.170;9.978;2024-02-21T11:41:03;11.00;1.00
15241;DHT22;7723;52.170;9.978;2024-02-21T11:43:34;11.00;1.00
15241;DHT22;7723;52.170;9.978;2024-02-21T11:46:02;11.00;1.00
15241;DHT22;7723;52.170;9.978;2024-02-21T11:48:32;11.10;1.00
15241;DHT22;7723;52.170;9.978;2024-02-21T11:50:59;11.30;1.00
15241;DHT22;7723;52.170;9.978;2024-02-21T11:53:26;11.40;1.00
15241;DHT22;7723;52.170;9.978;2024-02-21T11:55:56;11.40;1.00
15241;DHT22;7723;52.170;9.978;2024-02-21T11:58:23;11.40;1.00
15241;DHT22;7723;52.170;9.978;2024-02-21T12:00:51;11.40;1.00
15241;DHT22;7723;52.170;9.978;2024-02-21T12:03:18;11.30;99.90
15241;DHT22;7723;52.170;9.978;2024-02-21T12:05:47;11.40;1.00
15241;DHT22;7723;52.170;9.978;2024-02-21T12:08:15;11.30;1.00
15241;DHT22;7723;52.170;9.978;2024-02-21T12:10:44;11.20;99.90
15241;DHT22;7723;52.170;9.978;2024-02-21T12:13:16;11.10;99.90
15241;DHT22;7723;52.170;9.978;2024-02-21T12:15:47;11.10;1.00
15241;DHT22;7723;52.170;9.978;2024-02-21T12:18:15;11.20;1.00
15241;DHT22;7723;52.170;9.978;2024-02-21T12:20:42;11.20;1.00
15241;DHT22;7723;52.170;9.978;2024-02-21T12:23:13;11.30;1.00
15241;DHT22;7723;52.170;9.978;2024-02-21T12:25:40;11.40;99.90
15241;DHT22;7723;52.170;9.978;2024-02-21T12:28:07;11.40;99.90
15241;DHT22;7723;52.170;9.978;2024-02-21T12:30:34;11.40;99.90
15241;DHT22;7723;52.170;9.978;2024-02-21T12:33:05;11.50;99.90
15241;DHT22;7723;52.170;9.978;2024-02-21T12:35:32;11.50;1.00
15241;DHT22;7723;52.170;9.978;2024-02-21T12:37:59;11.50;1.00
15241;DHT22;7723;52.170;9.978;2024-02-21T12:40:28;11.60;1.00
15241;DHT22;7723;52.170;9.978;2024-02-21T12:42:58;11.70;99.90
15241;DHT22;7723;52.170;9.978;2024-02-21T12:45:28;11.90;99.90
15241;DHT22;7723;52.170;9.978;2024-02-21T12:47:55;11.80;99.90
15241;DHT22;7723;52.170;9.978;2024-02-21T12:50:22;11.80;99.90
15241;DHT22;7723;52.170;9.978;2024-02-21T12:52:49;11.70;99.90
15241;DHT22;7723;52.170;9.978;2024-02-21T12:55:16;11.60;99.90
15241;DHT22;7723;52.170;9.978;2024-02-21T12:57:45;11.50;99.90
15241;DHT22;7723;52.170;9.978;2024-02-21T13:00:14;11.50;99.90
15241;DHT22;7723;52.170;9.978;2024-02-21T13:02:48;11.60;99.90
15241;DHT22;7723;52.170;9.978;2024-02-21T13:05:17;11.70;99.90
15241;DHT22;7723;52.170;9.978;2024-02-21T13:07:44;11.80;99.90
15241;DHT22;7723;52.170;9.978;2024-02-21T13:10:11;11.90;99.90
15241;DHT22;7723;52.170;9.978;2024-02-21T13:12:38;11.80;99.90
15241;DHT22;7723;52.170;9.978;2024-02-21T13:15:08;11.80;99.90
15241;DHT22;7723;52.170;9.978;2024-02-21T13:17:37;11.90;99.90
15241;DHT22;7723;52.170;9.978;2024-02-21T13:20:06;11.90;99.90
15241;DHT22;7723;52.170;9.978;2024-02-21T13:22:34;11.90;99.90
15241;DHT22;7723;52.170;9.978;2024-02-21T13:25:01;11.70;99.90
15241;DHT22;7723;52.170;9.978;2024-02-21T13:27:28;11.60;99.90
15241;DHT22;7723;52.170;9.978;2024-02-21T13:29:55;11.60;99.90
15241;DHT22;7723;52.170;9.978;2024-02-21T13:32:24;11.50;99.90
15241;DHT22;7723;52.170;9.978;2024-02-21T13:34:51;11.50;99.90
15241;DHT22;7723;52.170;9.978;2024-02-21T13:37:18;11.50;99.90
15241;DHT22;7723;52.170;9.978;2024-02-21T13:39:47;11.50;99.90
15241;DHT22;7723;52.170;9.978;2024-02-21T13:42:14;11.60;99.90
15241;DHT22;7723;52.170;9.978;2024-02-21T13:44:41;11.60;99.90
15241;DHT22;7723;52.170;9.978;2024-02-21T13:47:09;11.50;99.90
15241;DHT22;7723;52.170;9.978;2024-02-21T13:49:38;11.50;99.90
15241;DHT22;7723;52.170;9.978;2024-02-21T13:52:05;11.40;99.90
15241;DHT22;7723;52.170;9.978;2024-02-21T13:54:32;11.40;99.90
15241;DHT22;7723;52.170;9.978;2024-02-21T13:56:59;11.40;99.90
15241;DHT22;7723;52.170;9.978;2024-02-21T13:59:28;11.40;99.90
15241;DHT22;7723;52.170;9.978;2024-02-21T14:01:55;11.40;99.90
15241;DHT22;7723;52.170;9.978;2024-02-21T14:04:22;11.40;1.00
15241;DHT22;7723;52.170;9.978;2024-02-21T14:06:51;11.50;1.00
15241;DHT22;7723;52.170;9.978;2024-02-21T14:09:19;11.50;1.00
15241;DHT22;7723;52.170;9.978;2024-02-21T14:11:46;11.40;1.00
15241;DHT22;7723;52.170;9.978;2024-02-21T14:14:13;11.40;1.00
15241;DHT22;7723;52.170;9.978;2024-02-21T14:16:41;11.30;1.00
15241;DHT22;7723;52.170;9.978;2024-02-21T14:19:08;11.10;1.00
15241;DHT22;7723;52.170;9.978;2024-02-21T14:21:36;11.10;1.00
15241;DHT22;7723;52.170;9.978;2024-02-21T14:24:05;11.10;1.00
15241;DHT22;7723;52.170;9.978;2024-02-21T14:26:33;11.10;1.00
15241;DHT22;7723;52.170;9.978;2024-02-21T14:29:01;11.10;10.70
15241;DHT22;7723;52.170;9.978;2024-02-21T14:31:30;11.00;93.20
15241;DHT22;7723;52.170;9.978;2024-02-21T14:33:58;11.00;34.40
15241;DHT22;7723;52.170;9.978;2024-02-21T14:36:26;11.00;99.90
15241;DHT22;7723;52.170;9.978;2024-02-21T14:38:53;10.90;99.90
15241;DHT22;7723;52.170;9.978;2024-02-21T14:41:21;10.90;1.00
15241;DHT22;7723;52.170;9.978;2024-02-21T14:43:50;10.80;1.00
15241;DHT22;7723;52.170;9.978;2024-02-21T14:46:17;10.60;99.90
15241;DHT22;7723;52.170;9.978;2024-02-21T14:48:44;10.50;99.90
15241;DHT22;7723;52.170;9.978;2024-02-21T14:51:12;10.40;99.90
15241;DHT22;7723;52.170;9.978;2024-02-21T14:53:39;10.40;1.00
15241;DHT22;7723;52.170;9.978;2024-02-21T14:56:13;10.50;1.00
15241;DHT22;7723;52.170;9.978;2024-02-21T14:58:43;10.40;1.00
15241;DHT22;7723;52.170;9.978;2024-02-21T15:01:10;10.20;99.90
15241;DHT22;7723;52.170;9.978;2024-02-21T15:03:38;10.10;99.90
15241;DHT22;7723;52.170;9.978;2024-02-21T15:06:06;10.00;1.00
15241;DHT22;7723;52.170;9.978;2024-02-21T15:08:33;9.90;22.80
15241;DHT22;7723;52.170;9.978;2024-02-21T15:11:00;10.00;99.90
15241;DHT22;7723;52.170;9.978;2024-02-21T15:13:27;9.90;1.00
15241;DHT22;7723;52.170;9.978;2024-02-21T15:15:55;9.90;28.30
15241;DHT22;7723;52.170;9.978;2024-02-21T15:18:22;9.90;1.00
15241;DHT22;7723;52.170;9.978;2024-02-21T15:20:49;9.90;99.90
15241;DHT22;7723;52.170;9.978;2024-02-21T15:23:17;9.80;99.90
15241;DHT22;7723;52.170;9.978;2024-02-21T15:25:45;9.90;1.00
15241;DHT22;7723;52.170;9.978;2024-02-21T15:28:12;9.80;1.00
15241;DHT22;7723;52.170;9.978;2024-02-21T15:30:40;9.70;1.00
15241;DHT22;7723;52.170;9.978;2024-02-21T15:33:08;9.60;1.00
15241;DHT22;7723;52.170;9.978;2024-02-21T15:35:35;9.60;1.00
15241;DHT22;7723;52.170;9.978;2024-02-21T15:38:02;9.60;1.00
15241;DHT22;7723;52.170;9.978;2024-02-21T15:40:30;9.50;1.00
15241;DHT22;7723;52.170;9.978;2024-02-21T15:43:01;9.60;1.00
15241;DHT22;7723;52.170;9.978;2024-02-21T15:45:28;9.50;80.80
15241;DHT22;7723;52.170;9.978;2024-02-21T15:47:55;9.40;1.00
15241;DHT22;7723;52.170;9.978;2024-02-21T15:50:23;9.50;99.90
15241;DHT22;7723;52.170;9.978;2024-02-21T15:52:53;9.40;1.00
15241;DHT22;7723;52.170;9.978;2024-02-21T15:55:20;9.40;99.90
15241;DHT22;7723;52.170;9.978;2024-02-21T15:57:47;9.30;1.00
15241;DHT22;7723;52.170;9.978;2024-02-21T16:00:16;9.30;1.00
15241;DHT22;7723;52.170;9.978;2024-02-21T16:02:44;9.20;1.00
15241;DHT22;7723;52.170;9.978;2024-02-21T16:05:11;9.20;1.00